createdAt,value
2023-02-22T00:01:35.846Z,7.40
2023-02-22T00:04:05.753Z,8.45
2023-02-22T00:06:33.392Z,5.88
2023-02-22T00:09:02.441Z,6.75
2023-02-22T00:11:31.661Z,5.90
2023-02-22T00:13:58.555Z,6.97
2023-02-22T00:16:26.614Z,8.13
2023-02-22T00:18:54.140Z,7.35
2023-02-22T00:21:21.078Z,7.07
2023-02-22T00:23:48.676Z,6.88
2023-02-22T00:26:18.565Z,6.50
2023-02-22T00:28:51.506Z,7.68
2023-02-22T00:31:19.273Z,7.65
2023-02-22T00:33:46.780Z,7.38
2023-02-22T00:36:14.315Z,6.75
2023-02-22T00:38:42.110Z,7.32
2023-02-22T00:41:09.684Z,5.00
2023-02-22T00:43:36.754Z,6.18
2023-02-22T00:46:03.698Z,5.70
2023-02-22T00:48:30.435Z,5.43
2023-02-22T00:50:57.225Z,8.18
2023-02-22T00:53:25.603Z,6.75
2023-02-22T00:55:53.065Z,5.07
2023-02-22T00:58:20.326Z,5.72
2023-02-22T01:00:47.641Z,6.47
2023-02-22T01:03:18.773Z,4.57
2023-02-22T01:05:46.236Z,6.10
2023-02-22T01:08:15.675Z,5.32
2023-02-22T01:10:43.087Z,5.03
2023-02-22T01:13:12.412Z,6.38
2023-02-22T01:15:45.023Z,8.23
2023-02-22T01:18:13.013Z,7.43
2023-02-22T01:20:40.116Z,7.25
2023-02-22T01:23:08.201Z,6.60
2023-02-22T01:25:35.838Z,7.53
2023-02-22T01:28:04.141Z,9.20
2023-02-22T01:30:36.426Z,7.97
2023-02-22T01:33:06.034Z,7.73
2023-02-22T01:35:40.925Z,8.73
2023-02-22T01:38:08.743Z,8.88
2023-02-22T01:40:39.024Z,8.98
2023-02-22T01:43:20.262Z,8.23
2023-02-22T01:45:50.263Z,8.00
2023-02-22T01:48:29.780Z,9.38
2023-02-22T01:51:01.437Z,7.50
2023-02-22T01:53:45.671Z,9.27
2023-02-22T01:56:13.744Z,8.65
2023-02-22T01:58:45.192Z,8.70
2023-02-22T02:01:12.089Z,10.25
2023-02-22T02:03:41.233Z,10.98
2023-02-22T02:06:13.011Z,10.23
2023-02-22T02:08:51.843Z,9.20
2023-02-22T02:11:22.303Z,10.15
2023-02-22T02:13:55.255Z,9.02
2023-02-22T02:16:26.404Z,10.98
2023-02-22T02:18:54.281Z,10.15
2023-02-22T02:21:26.965Z,9.00
2023-02-22T02:24:05.721Z,9.45
2023-02-22T02:26:54.229Z,9.00
2023-02-22T02:29:35.622Z,8.98
2023-02-22T02:32:30.348Z,9.32
2023-02-22T02:35:21.728Z,9.32
2023-02-22T02:37:57.651Z,8.75
2023-02-22T02:40:27.232Z,10.57
2023-02-22T02:43:03.174Z,10.43
2023-02-22T02:45:38.815Z,11.15
2023-02-22T02:48:10.020Z,10.70
2023-02-22T02:50:43.462Z,9.40
2023-02-22T02:53:11.360Z,8.82
2023-02-22T02:55:38.490Z,8.57
2023-02-22T02:58:07.423Z,9.30
2023-02-22T03:00:39.425Z,8.45
2023-02-22T03:03:30.964Z,8.15
2023-02-22T03:06:06.596Z,8.48
2023-02-22T03:08:53.790Z,8.52
2023-02-22T03:11:28.747Z,9.85
2023-02-22T03:14:08.213Z,8.52
2023-02-22T03:16:55.913Z,8.20
2023-02-22T03:19:37.297Z,8.32
2023-02-22T03:22:26.653Z,10.10
2023-02-22T03:25:08.365Z,8.82
2023-02-22T03:27:43.679Z,7.55
2023-02-22T03:30:28.003Z,8.95
2023-02-22T03:33:02.185Z,10.57
2023-02-22T03:35:35.464Z,9.85
2023-02-22T03:40:39.575Z,9.63
2023-02-22T03:43:31.595Z,8.52
2023-02-22T03:45:59.949Z,6.22
2023-02-22T03:48:36.313Z,1.95
2023-02-22T03:51:04.587Z,2.60
2023-02-22T03:53:34.553Z,1.27
2023-02-22T03:56:03.870Z,1.88
2023-02-22T03:58:32.501Z,1.10
2023-02-22T04:00:59.427Z,1.02
2023-02-22T04:03:26.113Z,0.80
2023-02-22T04:05:53.546Z,1.45
2023-02-22T04:08:20.395Z,2.67
2023-02-22T04:10:47.176Z,1.20
2023-02-22T04:13:14.782Z,1.40
2023-02-22T04:15:41.614Z,1.45
2023-02-22T04:18:08.277Z,1.10
2023-02-22T04:20:35.044Z,0.80
2023-02-22T04:23:01.881Z,0.85
2023-02-22T04:25:28.599Z,1.65
2023-02-22T04:27:55.294Z,2.30
2023-02-22T04:30:22.316Z,3.65
2023-02-22T04:32:49.641Z,1.00
2023-02-22T04:35:16.406Z,1.23
2023-02-22T04:37:43.152Z,1.10
2023-02-22T04:40:11.640Z,4.43
2023-02-22T04:42:39.169Z,1.17
2023-02-22T04:45:08.166Z,1.25
2023-02-22T04:47:36.036Z,1.95
2023-02-22T04:50:03.750Z,3.42
2023-02-22T04:52:30.421Z,1.92
2023-02-22T04:54:57.153Z,1.65
2023-02-22T04:57:23.879Z,1.95
2023-02-22T04:59:51.419Z,1.45
2023-02-22T05:02:18.909Z,2.20
2023-02-22T05:04:45.773Z,1.75
2023-02-22T05:07:12.533Z,2.17
2023-02-22T05:09:39.196Z,2.30
2023-02-22T05:12:06.150Z,1.85
2023-02-22T05:14:33.051Z,1.08
2023-02-22T05:17:01.187Z,1.10
2023-02-22T05:19:27.980Z,1.10
2023-02-22T05:21:56.533Z,2.08
2023-02-22T05:24:23.451Z,1.65
2023-02-22T05:26:51.390Z,1.58
2023-02-22T05:29:18.290Z,1.70
2023-02-22T05:31:45.081Z,1.20
2023-02-22T05:34:12.230Z,1.27
2023-02-22T05:36:38.966Z,1.73
2023-02-22T05:39:05.819Z,1.75
2023-02-22T05:41:32.646Z,4.55
2023-02-22T05:43:59.336Z,1.40
2023-02-22T05:46:26.058Z,4.22
2023-02-22T05:48:52.700Z,1.20
2023-02-22T05:51:19.822Z,2.03
2023-02-22T05:53:46.534Z,1.52
2023-02-22T05:56:21.831Z,2.58
2023-02-22T05:58:48.783Z,1.50
2023-02-22T06:01:15.789Z,1.58
2023-02-22T06:03:42.531Z,3.25
2023-02-22T06:06:10.496Z,1.02
2023-02-22T06:08:37.461Z,1.55
2023-02-22T06:11:04.256Z,2.67
2023-02-22T06:13:30.942Z,2.13
2023-02-22T06:15:58.144Z,2.22
2023-02-22T06:18:26.824Z,4.60
2023-02-22T06:20:53.576Z,1.75
2023-02-22T06:23:20.283Z,2.35
2023-02-22T06:25:47.014Z,2.88
2023-02-22T06:28:14.444Z,2.15
2023-02-22T06:30:43.139Z,1.77
2023-02-22T06:33:10.803Z,1.92
2023-02-22T06:35:37.579Z,1.42
2023-02-22T06:38:04.937Z,0.85
2023-02-22T06:40:31.634Z,1.50
2023-02-22T06:42:59.943Z,1.73
2023-02-22T06:45:26.871Z,2.35
2023-02-22T06:47:53.624Z,3.33
2023-02-22T06:50:26.610Z,1.70
2023-02-22T06:52:53.342Z,1.40
2023-02-22T06:55:28.468Z,2.90
2023-02-22T06:57:55.469Z,2.22
2023-02-22T07:00:25.238Z,1.67
2023-02-22T07:02:53.097Z,3.20
2023-02-22T07:05:21.936Z,1.20
2023-02-22T07:07:50.092Z,2.35
2023-02-22T07:10:24.123Z,4.93
2023-02-22T07:12:52.621Z,1.58
2023-02-22T07:15:23.860Z,3.53
2023-02-22T07:17:52.192Z,3.03
2023-02-22T07:20:20.903Z,2.67
2023-02-22T07:22:48.866Z,2.92
2023-02-22T07:25:15.646Z,3.58
2023-02-22T07:27:42.739Z,4.10
2023-02-22T07:30:34.655Z,3.22
2023-02-22T07:33:03.142Z,4.25
2023-02-22T07:35:32.488Z,4.70
2023-02-22T07:37:59.382Z,3.05
2023-02-22T07:40:27.242Z,4.20
2023-02-22T07:42:58.046Z,4.65
2023-02-22T07:45:27.233Z,4.82
2023-02-22T07:47:54.497Z,5.28
2023-02-22T07:50:22.963Z,3.78
2023-02-22T07:52:51.973Z,2.55
2023-02-22T07:55:20.970Z,1.83
2023-02-22T07:57:49.385Z,3.33
2023-02-22T08:00:21.939Z,2.95
2023-02-22T08:02:48.617Z,4.65
2023-02-22T08:05:15.556Z,5.15
2023-02-22T08:07:43.331Z,5.05
2023-02-22T08:10:11.458Z,7.15
2023-02-22T08:12:38.633Z,2.75
2023-02-22T08:15:08.129Z,3.13
2023-02-22T08:17:34.900Z,5.45
2023-02-22T08:20:01.856Z,2.38
2023-02-22T08:22:29.225Z,2.22
2023-02-22T08:24:55.946Z,6.63
2023-02-22T08:27:30.268Z,3.25
2023-02-22T08:29:57.627Z,3.47
2023-02-22T08:32:24.649Z,8.35
2023-02-22T08:34:52.145Z,5.25
2023-02-22T08:37:19.504Z,2.65
2023-02-22T08:39:46.208Z,6.47
2023-02-22T08:42:13.041Z,4.50
2023-02-22T08:44:40.380Z,3.88
2023-02-22T08:47:07.651Z,5.70
2023-02-22T08:49:34.478Z,4.72
2023-02-22T08:52:01.348Z,4.72
2023-02-22T08:54:28.269Z,4.15
2023-02-22T08:56:55.016Z,4.50
2023-02-22T08:59:21.702Z,7.50
2023-02-22T09:01:48.536Z,4.57
2023-02-22T09:04:15.234Z,7.00
2023-02-22T09:06:43.273Z,5.25
2023-02-22T09:09:10.256Z,5.38
2023-02-22T09:11:36.928Z,2.40
2023-02-22T09:14:03.610Z,4.68
2023-02-22T09:16:31.460Z,7.68
2023-02-22T09:18:58.176Z,9.32
2023-02-22T09:21:25.055Z,8.30
2023-02-22T09:23:54.781Z,5.38
2023-02-22T09:26:23.730Z,4.80
2023-02-22T09:28:50.878Z,3.33
2023-02-22T09:31:18.041Z,5.95
2023-02-22T09:33:47.364Z,6.38
2023-02-22T09:36:14.302Z,4.85
2023-02-22T09:38:41.205Z,4.78
2023-02-22T09:41:14.201Z,6.18
2023-02-22T09:43:49.954Z,9.77
2023-02-22T09:46:26.849Z,3.42
2023-02-22T09:48:58.094Z,7.35
2023-02-22T09:51:28.989Z,4.05
2023-02-22T09:54:00.595Z,5.28
2023-02-22T09:56:30.130Z,9.27
2023-02-22T09:59:01.931Z,6.55
2023-02-22T10:01:33.208Z,7.88
2023-02-22T10:04:31.108Z,6.28
2023-02-22T10:07:31.090Z,4.50
2023-02-22T10:10:06.405Z,3.45
2023-02-22T10:12:59.255Z,4.43
2023-02-22T10:16:00.318Z,7.97
2023-02-22T10:18:39.138Z,8.57
2023-02-22T10:21:11.808Z,4.43
2023-02-22T10:23:46.804Z,4.90
2023-02-22T10:26:27.102Z,6.45
2023-02-22T10:28:59.342Z,7.43
2023-02-22T10:31:33.895Z,11.32
2023-02-22T10:34:03.381Z,9.02
2023-02-22T10:36:30.222Z,8.88
2023-02-22T10:39:02.826Z,8.65
2023-02-22T10:41:36.105Z,13.75
2023-02-22T10:46:33.299Z,5.50
2023-02-22T10:49:08.716Z,6.68
2023-02-22T10:51:35.472Z,9.00
2023-02-22T10:54:14.384Z,8.20
2023-02-22T10:56:53.978Z,5.55
2023-02-22T10:59:37.250Z,11.05
2023-02-22T11:02:35.290Z,8.00
2023-02-22T11:05:04.778Z,9.95
2023-02-22T11:07:35.098Z,7.20
2023-02-22T11:10:10.782Z,5.55
2023-02-22T11:12:40.160Z,11.48
2023-02-22T11:15:29.618Z,11.05
2023-02-22T11:17:57.865Z,12.80
2023-02-22T11:20:27.839Z,10.05
2023-02-22T11:23:01.260Z,8.68
2023-02-22T11:25:33.306Z,11.95
2023-02-22T11:28:31.317Z,11.25
2023-02-22T11:31:08.934Z,13.63
2023-02-22T11:33:37.974Z,8.70
2023-02-22T11:36:08.940Z,10.52
2023-02-22T11:38:53.024Z,13.60
2023-02-22T11:41:26.395Z,10.57
2023-02-22T11:43:54.455Z,10.73
2023-02-22T11:46:29.202Z,7.60
2023-02-22T11:49:11.637Z,11.73
2023-02-22T11:51:54.133Z,12.05
2023-02-22T11:54:29.143Z,12.32
2023-02-22T11:57:16.152Z,11.23
2023-02-22T12:00:16.711Z,10.88
2023-02-22T12:03:12.160Z,8.90
2023-02-22T12:06:08.330Z,8.27
2023-02-22T12:09:02.670Z,13.82
2023-02-22T12:11:35.234Z,8.80
2023-02-22T12:14:08.761Z,9.25
2023-02-22T12:17:19.267Z,10.45
2023-02-22T12:19:56.305Z,14.27
2023-02-22T12:22:28.907Z,11.40
2023-02-22T12:25:10.369Z,8.80
2023-02-22T12:27:40.804Z,9.77
2023-02-22T12:30:16.432Z,13.15
2023-02-22T12:32:48.854Z,10.93
2023-02-22T12:35:21.941Z,11.40
2023-02-22T12:38:01.888Z,9.27
2023-02-22T12:40:54.584Z,7.88
2023-02-22T12:43:28.487Z,9.65
2023-02-22T12:46:00.479Z,8.88
2023-02-22T12:48:35.503Z,16.70
2023-02-22T12:51:16.144Z,11.80
2023-02-22T12:53:52.745Z,11.68
2023-02-22T12:56:28.641Z,6.32
2023-02-22T12:59:08.256Z,6.07
2023-02-22T13:01:40.457Z,9.10
2023-02-22T13:04:20.227Z,9.35
2023-02-22T13:07:00.758Z,13.23
2023-02-22T13:09:36.562Z,10.52
2023-02-22T13:12:21.554Z,13.00
2023-02-22T13:15:09.564Z,8.98
2023-02-22T13:18:06.658Z,10.90
2023-02-22T13:20:47.811Z,11.77
2023-02-22T13:23:19.307Z,7.65
2023-02-22T13:26:10.228Z,10.27
2023-02-22T13:28:43.535Z,8.95
2023-02-22T13:31:31.634Z,7.60
2023-02-22T13:34:22.019Z,8.82
2023-02-22T13:36:59.725Z,8.07
2023-02-22T13:39:47.950Z,8.18
2023-02-22T13:42:38.692Z,7.43
2023-02-22T13:45:05.353Z,12.55
2023-02-22T13:47:50.284Z,9.50
2023-02-22T13:50:44.740Z,9.70
2023-02-22T13:53:35.099Z,13.32
2023-02-22T13:56:02.358Z,9.10
2023-02-22T13:58:29.315Z,11.82
2023-02-22T14:00:58.486Z,9.05
2023-02-22T14:03:36.100Z,6.55
2023-02-22T14:06:05.326Z,8.68
2023-02-22T14:08:32.044Z,12.18
2023-02-22T14:10:59.703Z,11.50
2023-02-22T14:13:28.630Z,6.90
2023-02-22T14:15:59.997Z,5.75
2023-02-22T14:18:36.465Z,9.80
2023-02-22T14:21:16.717Z,10.63
2023-02-22T14:23:51.720Z,7.72
2023-02-22T14:26:40.485Z,6.25
2023-02-22T14:29:08.068Z,5.70
2023-02-22T14:31:56.559Z,11.55
2023-02-22T14:34:40.884Z,9.40
2023-02-22T14:37:13.077Z,8.27
2023-02-22T14:40:29.563Z,11.68
2023-02-22T14:43:10.957Z,9.77
2023-02-22T14:45:45.945Z,10.52
2023-02-22T14:48:25.085Z,5.88
2023-02-22T14:51:08.814Z,4.30
2023-02-22T14:54:00.411Z,5.15
2023-02-22T14:56:36.554Z,4.03
2023-02-22T14:59:12.866Z,4.68
2023-02-22T15:01:50.872Z,6.05
2023-02-22T15:04:26.630Z,10.13
2023-02-22T15:06:55.713Z,7.32
2023-02-22T15:09:30.607Z,8.88
2023-02-22T15:12:04.936Z,4.38
2023-02-22T15:17:20.148Z,4.20
2023-02-22T15:19:51.216Z,7.32
2023-02-22T15:22:35.708Z,6.32
2023-02-22T15:25:08.680Z,5.57
2023-02-22T15:27:39.962Z,6.20
2023-02-22T15:30:17.157Z,6.82
2023-02-22T15:33:01.286Z,7.05
2023-02-22T15:35:32.947Z,8.20
2023-02-22T15:38:02.316Z,3.80
2023-02-22T15:40:35.151Z,3.30
2023-02-22T15:43:08.599Z,3.88
2023-02-22T15:45:38.311Z,3.58
2023-02-22T15:48:05.117Z,3.95
2023-02-22T15:50:34.288Z,3.33
2023-02-22T15:53:04.450Z,7.00
2023-02-22T15:55:47.421Z,6.22
2023-02-22T15:58:28.815Z,5.78
2023-02-22T16:01:03.122Z,11.05
2023-02-22T16:03:45.549Z,10.75
2023-02-22T16:06:26.779Z,8.15
2023-02-22T16:08:55.879Z,9.80
2023-02-22T16:11:34.439Z,6.07
2023-02-22T16:14:26.198Z,8.57
2023-02-22T16:17:11.674Z,9.98
2023-02-22T16:19:45.143Z,10.98
2023-02-22T16:22:46.649Z,9.77
2023-02-22T16:25:19.264Z,9.35
2023-02-22T16:27:51.298Z,8.38
2023-02-22T16:30:28.874Z,9.30
2023-02-22T16:32:57.526Z,15.25
2023-02-22T16:35:29.039Z,14.38
2023-02-22T16:38:17.660Z,15.60
2023-02-22T16:40:53.969Z,12.68
2023-02-22T16:43:28.206Z,17.67
2023-02-22T16:45:55.106Z,18.95
2023-02-22T16:48:27.608Z,24.33
2023-02-22T16:50:56.997Z,17.00
2023-02-22T16:53:26.320Z,19.58
2023-02-22T16:55:58.564Z,17.90
2023-02-22T16:58:29.616Z,26.58
2023-02-22T17:00:57.675Z,13.68
2023-02-22T17:03:25.697Z,21.83
2023-02-22T17:05:52.915Z,15.90
2023-02-22T17:08:19.738Z,12.13
2023-02-22T17:10:51.892Z,12.68
2023-02-22T17:13:26.920Z,13.05
2023-02-22T17:15:56.867Z,10.68
2023-02-22T17:18:25.229Z,10.60
2023-02-22T17:20:53.255Z,11.73
2023-02-22T17:23:20.693Z,16.13
2023-02-22T17:25:59.376Z,17.50
2023-02-22T17:28:27.145Z,17.70
2023-02-22T17:30:55.545Z,14.65
2023-02-22T17:33:27.026Z,14.90
2023-02-22T17:35:56.057Z,17.05
2023-02-22T17:38:23.040Z,13.73
2023-02-22T17:40:54.883Z,19.00
2023-02-22T17:43:22.699Z,17.80
2023-02-22T17:45:50.206Z,13.02
2023-02-22T17:48:18.802Z,18.80
2023-02-22T17:50:47.506Z,13.90
2023-02-22T17:53:14.463Z,20.45
2023-02-22T17:55:42.583Z,10.73
2023-02-22T17:58:14.838Z,17.95
2023-02-22T18:00:48.059Z,14.90
2023-02-22T18:05:48.795Z,8.80
2023-02-22T18:08:15.916Z,14.30
2023-02-22T18:10:43.902Z,13.32
2023-02-22T18:13:14.348Z,21.95
2023-02-22T18:15:41.179Z,12.77
2023-02-22T18:18:07.963Z,13.70
2023-02-22T18:20:40.416Z,20.42
2023-02-22T18:23:08.892Z,18.63
2023-02-22T18:25:37.116Z,13.70
2023-02-22T18:28:06.392Z,12.30
2023-02-22T18:30:37.961Z,15.73
2023-02-22T18:33:04.845Z,15.73
2023-02-22T18:35:31.883Z,17.33
2023-02-22T18:37:58.567Z,14.90
2023-02-22T18:40:25.274Z,14.35
2023-02-22T18:42:51.989Z,18.75
2023-02-22T18:45:19.408Z,17.08
2023-02-22T18:47:46.101Z,15.80
2023-02-22T18:50:23.575Z,21.33
2023-02-22T18:52:50.397Z,11.68
2023-02-22T18:55:19.261Z,16.02
2023-02-22T18:57:47.761Z,25.42
2023-02-22T19:00:17.686Z,18.70
2023-02-22T19:02:49.486Z,17.90
2023-02-22T19:05:18.897Z,17.55
2023-02-22T19:10:26.316Z,18.17
2023-02-22T19:12:53.110Z,16.55
2023-02-22T19:15:19.910Z,14.45
2023-02-22T19:17:46.828Z,28.15
2023-02-22T19:20:13.592Z,13.77
2023-02-22T19:22:40.356Z,24.23
2023-02-22T19:25:07.321Z,18.73
2023-02-22T19:27:34.257Z,14.35
2023-02-22T19:30:00.996Z,17.58
2023-02-22T19:32:27.763Z,23.95
2023-02-22T19:35:02.360Z,16.83
2023-02-22T19:37:35.681Z,11.35
2023-02-22T19:42:30.431Z,15.05
2023-02-22T19:44:57.089Z,15.48
2023-02-22T19:47:23.796Z,18.45
2023-02-22T19:49:50.817Z,12.18
2023-02-22T19:52:17.592Z,10.32
2023-02-22T19:54:45.189Z,12.23
2023-02-22T19:57:11.989Z,11.82
2023-02-22T19:59:39.314Z,11.05
2023-02-22T20:02:07.770Z,13.07
2023-02-22T20:04:37.443Z,13.10
2023-02-22T20:07:04.270Z,12.60
2023-02-22T20:09:39.719Z,19.75
2023-02-22T20:12:07.166Z,12.68
2023-02-22T20:14:34.336Z,12.63
2023-02-22T20:17:01.351Z,17.00
2023-02-22T20:19:28.590Z,16.55
2023-02-22T20:21:56.158Z,14.90
2023-02-22T20:24:24.364Z,15.35
2023-02-22T20:26:55.739Z,10.35
2023-02-22T20:29:29.595Z,9.88
2023-02-22T20:32:01.564Z,18.42
2023-02-22T20:34:33.400Z,14.70
2023-02-22T20:37:01.408Z,17.42
2023-02-22T20:39:28.161Z,11.05
2023-02-22T20:41:54.910Z,15.93
2023-02-22T20:44:22.073Z,19.17
2023-02-22T20:46:49.133Z,12.30
2023-02-22T20:49:19.074Z,22.02
2023-02-22T20:51:46.921Z,15.40
2023-02-22T20:54:14.287Z,9.23
2023-02-22T20:56:43.546Z,12.18
2023-02-22T20:59:15.817Z,11.35
2023-02-22T21:01:42.932Z,12.00
2023-02-22T21:04:10.718Z,18.10
2023-02-22T21:06:39.087Z,13.40
2023-02-22T21:09:08.888Z,16.15
2023-02-22T21:11:35.863Z,16.80
2023-02-22T21:14:03.252Z,19.25
2023-02-22T21:16:33.184Z,15.75
2023-02-22T21:19:02.842Z,13.75
2023-02-22T21:21:29.973Z,12.25
2023-02-22T21:23:57.964Z,17.77
2023-02-22T21:26:27.560Z,15.18
2023-02-22T21:28:57.450Z,12.68
2023-02-22T21:31:25.650Z,17.20
2023-02-22T21:33:54.314Z,15.13
2023-02-22T21:36:25.373Z,12.35
2023-02-22T21:38:55.720Z,16.17
2023-02-22T21:41:27.647Z,16.30
2023-02-22T21:43:56.495Z,15.27
2023-02-22T21:46:24.416Z,15.35
2023-02-22T21:48:51.278Z,19.85
2023-02-22T21:51:23.765Z,15.85
2023-02-22T21:53:53.446Z,14.43
2023-02-22T21:56:27.553Z,18.38
2023-02-22T21:59:00.232Z,12.77
2023-02-22T22:01:28.586Z,12.13
2023-02-22T22:03:56.881Z,13.70
2023-02-22T22:06:23.574Z,16.05
2023-02-22T22:08:50.556Z,11.90
2023-02-22T22:11:18.077Z,13.20
2023-02-22T22:13:45.407Z,8.75
2023-02-22T22:16:16.903Z,10.95
2023-02-22T22:18:45.363Z,12.43
2023-02-22T22:21:17.866Z,19.30
2023-02-22T22:23:47.239Z,14.68
2023-02-22T22:26:16.606Z,12.88
2023-02-22T22:28:46.245Z,11.63
2023-02-22T22:31:15.074Z,16.10
2023-02-22T22:33:44.101Z,12.45
2023-02-22T22:36:13.844Z,12.98
2023-02-22T22:38:40.644Z,11.35
2023-02-22T22:41:10.506Z,11.13
2023-02-22T22:43:37.602Z,10.20
2023-02-22T22:46:06.481Z,19.45
2023-02-22T22:48:36.197Z,16.15
2023-02-22T22:51:09.920Z,17.17
2023-02-22T22:53:39.866Z,13.13
2023-02-22T22:56:14.194Z,12.93
2023-02-22T22:58:44.116Z,19.80
2023-02-22T23:01:17.915Z,16.58
2023-02-22T23:03:55.319Z,16.70
2023-02-22T23:06:25.066Z,14.77
2023-02-22T23:08:58.456Z,14.63
2023-02-22T23:11:25.128Z,9.70
2023-02-22T23:13:51.980Z,14.13
2023-02-22T23:16:19.916Z,8.85
2023-02-22T23:18:46.592Z,17.60
2023-02-22T23:21:13.298Z,13.88
2023-02-22T23:23:41.224Z,13.90
2023-02-22T23:26:18.061Z,14.68
2023-02-22T23:28:47.539Z,12.30
2023-02-22T23:31:18.099Z,11.20
2023-02-22T23:33:50.322Z,8.98
2023-02-22T23:36:18.696Z,12.32
2023-02-22T23:38:45.843Z,12.68
2023-02-22T23:41:16.608Z,17.95
2023-02-22T23:43:44.907Z,10.85
2023-02-22T23:46:20.403Z,13.18
2023-02-22T23:48:52.499Z,13.20
2023-02-22T23:51:25.523Z,15.30
2023-02-22T23:56:27.954Z,17.42
2023-02-22T23:58:57.543Z,7.72
